Terminal Aerodrome Forecast
Issued by NWS

Home | Current Version | Previous Version | Text Only | Print | Product List | Glossary On
Versions: 1 2 3 4 5 6 7 8 9 10 11 12 13 14 15 16 17 18 19 20 21 22 23 24 25 26 27 28 29 30
000
FTUS41 KOKX 230800 AAA
TAFTEB
TAF AMD
KTEB 230830Z 2309/2406 30010G18KT P6SM BKN040
     FM231400 31018G27KT P6SM SCT050
     FM231800 32021G32KT P6SM SCT050
     FM240200 32015G23KT P6SM SKC=

USA.gov is the U.S. government's official web portal to all federal, state and local government web resources and services.